Time;durP1;ratioP1;P1;durP2;ratioP2;P2;SDS_P1;SDS_P2;PMS_P1;PMS_P2;Temp;Humidity;BMP_temperature;BMP_pressure;BME280_temperature;BME280_humidity;BME280_pressure;Samples;Min_cycle;Max_cycle;Signal;HPM_P1;HPM_P2
2022/02/21 00:02:02;;;;;;;5.90;1.90;;;10.40;1.00;;;;;;5092355;28;20209;-74
2022/02/21 00:04:31;;;;;;;11.50;2.90;;;10.40;1.00;;;;;;5092774;28;20233;-75
2022/02/21 00:06:58;;;;;;;6.27;1.93;;;10.30;1.00;;;;;;5092066;28;20252;-75
2022/02/21 00:09:25;;;;;;;6.47;2.20;;;10.30;1.00;;;;;;5092604;28;20719;-75
2022/02/21 00:11:52;;;;;;;11.13;2.50;;;10.20;1.00;;;;;;5092105;28;20283;-75
2022/02/21 00:14:19;;;;;;;7.60;2.87;;;10.30;1.00;;;;;;5092230;28;20198;-75
2022/02/21 00:16:46;;;;;;;7.37;2.43;;;10.30;1.00;;;;;;5092602;28;20209;-74
2022/02/21 00:19:13;;;;;;;6.20;1.90;;;10.20;1.00;;;;;;5092097;28;20205;-74
2022/02/21 00:21:41;;;;;;;5.87;2.93;;;10.10;1.00;;;;;;5092065;28;20205;-75
2022/02/21 00:24:08;;;;;;;5.20;2.20;;;10.00;1.00;;;;;;5091630;28;20646;-74
2022/02/21 00:26:35;;;;;;;11.87;2.67;;;10.00;1.00;;;;;;5091976;28;20209;-74
2022/02/21 00:29:03;;;;;;;10.30;3.00;;;10.00;1.00;;;;;;5091809;28;20197;-74
2022/02/21 00:31:30;;;;;;;7.77;2.10;;;9.90;1.00;;;;;;5092495;28;20289;-73
2022/02/21 00:33:57;;;;;;;10.73;2.43;;;9.90;1.00;;;;;;5091920;28;20247;-74
2022/02/21 00:36:24;;;;;;;8.37;2.60;;;9.80;1.00;;;;;;5092014;28;20209;-75
2022/02/21 00:38:52;;;;;;;5.83;2.47;;;9.70;1.00;;;;;;5092230;28;20702;-75
2022/02/21 00:41:19;;;;;;;4.63;2.23;;;9.70;1.00;;;;;;5092249;28;20205;-75
2022/02/21 00:43:46;;;;;;;11.07;3.20;;;9.60;1.00;;;;;;5091944;28;20266;-74
2022/02/21 00:46:13;;;;;;;9.03;1.70;;;9.60;1.00;;;;;;5091929;28;20262;-74
2022/02/21 00:48:40;;;;;;;7.83;2.33;;;9.50;1.00;;;;;;5091916;28;20258;-75
2022/02/21 00:51:07;;;;;;;9.10;2.10;;;9.60;1.00;;;;;;5091367;28;20233;-74
2022/02/21 00:53:34;;;;;;;8.50;3.03;;;9.60;1.00;;;;;;5052309;28;1136434;-75
2022/02/21 00:56:03;;;;;;;6.77;2.07;;;9.60;1.00;;;;;;5092215;28;20274;-74
2022/02/21 00:58:30;;;;;;;7.90;2.40;;;9.60;1.00;;;;;;5092799;28;20282;-74
2022/02/21 01:00:57;;;;;;;6.33;3.10;;;9.50;1.00;;;;;;5092437;28;20210;-75
2022/02/21 01:03:24;;;;;;;10.23;2.90;;;9.50;1.00;;;;;;5092747;28;20201;-74
2022/02/21 01:05:51;;;;;;;10.10;2.90;;;9.60;1.00;;;;;;5092903;28;20251;-75
2022/02/21 01:08:18;;;;;;;6.13;1.80;;;9.60;1.00;;;;;;5092567;28;20254;-75
2022/02/21 01:10:45;;;;;;;5.97;1.73;;;9.60;1.00;;;;;;5092605;28;20253;-75
2022/02/21 01:13:13;;;;;;;9.80;2.73;;;9.60;1.00;;;;;;5091739;28;20278;-75
2022/02/21 01:15:40;;;;;;;4.93;2.67;;;9.50;1.00;;;;;;5092311;28;20202;-74
2022/02/21 01:18:07;;;;;;;9.47;1.63;;;9.50;1.00;;;;;;5091960;28;20599;-75
2022/02/21 01:20:34;;;;;;;11.13;1.97;;;9.50;1.00;;;;;;5092508;28;20207;-75
2022/02/21 01:23:01;;;;;;;10.93;3.63;;;9.50;1.00;;;;;;5091279;28;20205;-76
2022/02/21 01:25:28;;;;;;;8.63;2.07;;;9.50;1.00;;;;;;5092088;28;20635;-74
2022/02/21 01:27:55;;;;;;;12.67;2.93;;;9.50;1.00;;;;;;5091659;28;20665;-76
2022/02/21 01:30:23;;;;;;;10.20;2.10;;;9.50;1.00;;;;;;5092476;28;20201;-75
2022/02/21 01:32:50;;;;;;;6.37;2.47;;;9.40;1.00;;;;;;5092295;28;20286;-75
2022/02/21 01:35:17;;;;;;;10.47;2.97;;;9.50;1.00;;;;;;5091930;28;20301;-75
2022/02/21 01:37:44;;;;;;;4.80;1.80;;;9.40;1.00;;;;;;5092202;28;20214;-74
2022/02/21 01:40:12;;;;;;;10.43;2.00;;;9.50;1.00;;;;;;5091694;28;20201;-75
2022/02/21 01:42:39;;;;;;;8.00;3.83;;;9.50;1.00;;;;;;5091599;28;20202;-75
2022/02/21 01:45:07;;;;;;;12.57;3.37;;;9.60;1.00;;;;;;5091518;28;20201;-74
2022/02/21 01:47:36;;;;;;;5.37;1.73;;;9.70;1.00;;;;;;5091867;28;20255;-74
2022/02/21 01:50:04;;;;;;;7.87;2.57;;;9.70;1.00;;;;;;5091153;28;20685;-74
2022/02/21 01:52:32;;;;;;;7.27;2.47;;;9.70;1.00;;;;;;5091446;28;20233;-75
2022/02/21 01:54:59;;;;;;;20.33;4.33;;;9.70;1.00;;;;;;5090891;28;20669;-75
2022/02/21 01:57:27;;;;;;;7.70;2.33;;;9.70;1.00;;;;;;5091638;28;20205;-74
2022/02/21 01:59:54;;;;;;;5.47;2.60;;;9.60;1.00;;;;;;5091343;28;20201;-75
2022/02/21 02:02:21;;;;;;;6.80;2.47;;;9.70;1.00;;;;;;5091637;28;20673;-75
2022/02/21 02:04:49;;;;;;;9.30;3.23;;;9.80;1.00;;;;;;5091928;28;20201;-75
2022/02/21 02:07:17;;;;;;;8.13;2.23;;;9.80;1.00;;;;;;5091203;28;20267;-76
2022/02/21 02:09:44;;;;;;;8.60;3.27;;;9.90;1.00;;;;;;5091338;28;20205;-75
2022/02/21 02:12:11;;;;;;;6.30;1.90;;;9.90;1.00;;;;;;5090995;28;20241;-74
2022/02/21 02:14:40;;;;;;;5.83;1.80;;;10.10;1.00;;;;;;5078424;28;20263;-74
2022/02/21 02:17:09;;;;;;;5.33;1.50;;;10.10;1.00;;;;;;5070605;28;20255;-75
2022/02/21 02:19:36;;;;;;;7.47;1.97;;;10.30;1.00;;;;;;5071148;28;20202;-74
2022/02/21 02:22:13;;;;;;;9.73;3.00;;;10.30;1.00;;;;;;5070746;28;20251;-75
2022/02/21 02:24:41;;;;;;;4.43;1.90;;;10.30;1.00;;;;;;5070626;28;20198;-74
2022/02/21 02:27:09;;;;;;;5.60;2.20;;;10.10;1.00;;;;;;5070387;28;20217;-75
2022/02/21 02:29:37;;;;;;;8.97;2.50;;;10.00;1.00;;;;;;5070798;28;20199;-74
2022/02/21 02:32:05;;;;;;;8.70;2.40;;;10.00;1.00;;;;;;5070451;28;20320;-76
2022/02/21 02:34:32;;;;;;;4.43;1.23;;;10.00;1.00;;;;;;5070765;28;20198;-74
2022/02/21 02:36:59;;;;;;;6.00;1.37;;;10.00;1.00;;;;;;5070416;28;20202;-75
2022/02/21 02:39:28;;;;;;;10.30;2.20;;;10.10;1.00;;;;;;5070609;28;20250;-75
2022/02/21 02:41:55;;;;;;;5.53;2.20;;;10.20;1.00;;;;;;5070327;28;20206;-75
2022/02/21 02:44:23;;;;;;;4.77;1.83;;;10.30;1.00;;;;;;5071038;28;20206;-75
2022/02/21 02:46:50;;;;;;;3.53;1.43;;;10.30;1.00;;;;;;5071388;28;20206;-76
2022/02/21 02:49:17;;;;;;;8.30;1.93;;;10.30;1.00;;;;;;5070530;28;20212;-76
2022/02/21 02:51:44;;;;;;;11.47;2.00;;;10.30;1.00;;;;;;5070840;28;20268;-74
2022/02/21 02:54:12;;;;;;;3.40;1.60;;;10.40;1.00;;;;;;5069601;28;20210;-75
2022/02/21 02:56:42;;;;;;;5.67;1.33;;;10.40;1.00;;;;;;5070586;28;20722;-75
2022/02/21 02:59:10;;;;;;;4.27;1.73;;;10.40;1.00;;;;;;5070407;28;20580;-75
2022/02/21 03:01:39;;;;;;;3.87;2.47;;;10.40;1.00;;;;;;5070712;28;20251;-76
2022/02/21 03:04:06;;;;;;;7.10;2.67;;;10.40;1.00;;;;;;5070311;28;20202;-75
2022/02/21 03:06:34;;;;;;;6.33;1.47;;;10.40;1.00;;;;;;5070759;28;20582;-75
2022/02/21 03:09:02;;;;;;;9.07;1.80;;;10.40;1.00;;;;;;5069844;28;20223;-75
2022/02/21 03:11:29;;;;;;;4.00;1.43;;;10.50;1.00;;;;;;5070589;28;20260;-75
2022/02/21 03:13:59;;;;;;;8.93;2.57;;;10.40;1.00;;;;;;5070070;28;20264;-74
2022/02/21 03:16:26;;;;;;;4.13;1.50;;;10.50;1.00;;;;;;5070590;28;20202;-75
2022/02/21 03:18:53;;;;;;;3.57;1.10;;;10.50;1.00;;;;;;5070430;28;20289;-75
2022/02/21 03:21:20;;;;;;;8.97;2.10;;;10.50;1.00;;;;;;5070820;28;20210;-75
2022/02/21 03:23:47;;;;;;;4.10;1.20;;;10.50;1.00;;;;;;5070382;28;20206;-75
2022/02/21 03:26:14;;;;;;;4.73;1.23;;;10.60;1.00;;;;;;5070148;28;20210;-75
2022/02/21 03:28:42;;;;;;;7.43;1.40;;;10.60;1.00;;;;;;5070558;28;20251;-74
2022/02/21 03:31:11;;;;;;;5.73;1.33;;;10.60;1.00;;;;;;5069868;28;20553;-76
2022/02/21 03:33:38;;;;;;;4.97;1.23;;;10.60;1.00;;;;;;5070260;28;20291;-74
2022/02/21 03:36:05;;;;;;;6.40;2.20;;;10.60;1.00;;;;;;5069717;28;20687;-75
2022/02/21 03:38:32;;;;;;;5.97;1.63;;;10.60;1.00;;;;;;5070137;28;20202;-74
2022/02/21 03:40:59;;;;;;;6.50;1.10;;;10.70;1.00;;;;;;5069952;28;20202;-75
2022/02/21 03:43:26;;;;;;;3.67;1.33;;;10.70;1.00;;;;;;5070142;28;20207;-75
2022/02/21 03:45:53;;;;;;;6.97;1.93;;;10.70;1.00;;;;;;5070144;28;20662;-75
2022/02/21 03:48:22;;;;;;;5.03;1.80;;;10.70;1.00;;;;;;5073751;28;20202;-75
2022/02/21 03:50:49;;;;;;;8.67;1.80;;;10.70;1.00;;;;;;5073825;28;20264;-76
2022/02/21 03:53:16;;;;;;;2.70;1.40;;;10.80;1.00;;;;;;5072836;28;20287;-76
2022/02/21 03:55:43;;;;;;;7.57;4.10;;;10.70;1.00;;;;;;5073838;28;20206;-74
2022/02/21 03:58:11;;;;;;;2.83;0.97;;;10.80;1.00;;;;;;5073354;28;20198;-75
2022/02/21 04:00:38;;;;;;;4.03;1.20;;;10.80;1.00;;;;;;5073657;28;20214;-75
2022/02/21 04:03:05;;;;;;;4.07;1.00;;;10.80;1.00;;;;;;5072822;28;20203;-75
2022/02/21 04:05:33;;;;;;;7.57;1.40;;;10.80;1.00;;;;;;5079843;28;20628;-76
2022/02/21 04:08:00;;;;;;;1.83;1.17;;;10.80;1.00;;;;;;5093187;28;20209;-74
2022/02/21 04:10:27;;;;;;;4.77;1.53;;;10.80;1.00;;;;;;5093602;28;20758;-75
2022/02/21 04:12:54;;;;;;;7.70;1.67;;;10.90;1.00;;;;;;5093104;28;20653;-75
2022/02/21 04:15:21;;;;;;;8.17;2.87;;;10.90;1.00;;;;;;5093939;28;20661;-74
2022/02/21 04:17:50;;;;;;;5.57;2.37;;;10.90;1.00;;;;;;5093728;28;20209;-75
2022/02/21 04:20:20;;;;;;;5.77;1.77;;;10.90;1.00;;;;;;5093074;28;20212;-75
2022/02/21 04:22:48;;;;;;;2.83;1.53;;;10.90;1.00;;;;;;5093853;28;20274;-74
2022/02/21 04:25:16;;;;;;;5.47;1.70;;;10.90;1.00;;;;;;5093164;28;20255;-73
2022/02/21 04:27:44;;;;;;;4.23;1.83;;;10.90;1.00;;;;;;5093397;28;20209;-74
2022/02/21 04:30:12;;;;;;;4.93;1.47;;;10.90;1.00;;;;;;5092834;28;20213;-74
2022/02/21 04:32:40;;;;;;;7.53;2.70;;;10.90;1.00;;;;;;5093450;28;20234;-74
2022/02/21 04:35:08;;;;;;;12.77;2.77;;;11.00;1.00;;;;;;5092584;28;20217;-74
2022/02/21 04:37:36;;;;;;;6.47;2.13;;;10.90;1.00;;;;;;5093294;28;20205;-75
2022/02/21 04:40:06;;;;;;;8.57;2.40;;;10.90;1.00;;;;;;5092763;28;20205;-74
2022/02/21 04:42:33;;;;;;;7.83;1.67;;;11.00;1.00;;;;;;5093098;28;20198;-75
2022/02/21 04:45:00;;;;;;;6.60;1.83;;;11.00;1.00;;;;;;5092436;28;20197;-74
2022/02/21 04:47:27;;;;;;;4.63;3.07;;;11.00;1.00;;;;;;5092909;28;20664;-75
2022/02/21 04:49:54;;;;;;;14.03;2.70;;;11.00;1.00;;;;;;5092432;28;20255;-74
2022/02/21 04:52:21;;;;;;;8.03;2.30;;;11.00;1.00;;;;;;5093086;28;20583;-75
2022/02/21 04:54:48;;;;;;;8.60;1.87;;;11.00;1.00;;;;;;5093207;28;20206;-74
2022/02/21 04:57:17;;;;;;;7.17;1.60;;;11.00;1.00;;;;;;5092291;28;20605;-74
2022/02/21 04:59:44;;;;;;;11.77;2.43;;;11.00;1.00;;;;;;5091894;28;20206;-74
2022/02/21 05:02:11;;;;;;;6.20;1.90;;;11.00;1.00;;;;;;5092404;28;20202;-74
2022/02/21 05:04:38;;;;;;;9.17;1.77;;;11.10;1.00;;;;;;5092030;28;20213;-74
2022/02/21 05:07:05;;;;;;;6.93;1.60;;;11.10;1.00;;;;;;5092272;28;20251;-74
2022/02/21 05:09:32;;;;;;;7.87;2.10;;;11.10;1.00;;;;;;5092640;28;20253;-74
2022/02/21 05:11:59;;;;;;;11.43;2.23;;;11.10;1.00;;;;;;5091741;28;20623;-74
2022/02/21 05:14:27;;;;;;;9.10;2.20;;;11.10;1.00;;;;;;5092438;28;20682;-74
2022/02/21 05:16:54;;;;;;;3.87;1.93;;;11.00;1.00;;;;;;5092280;28;20254;-74
2022/02/21 05:19:21;;;;;;;8.00;2.37;;;11.00;1.00;;;;;;5092524;28;20247;-74
2022/02/21 05:21:48;;;;;;;9.63;2.30;;;11.10;1.00;;;;;;5092608;28;20255;-74
2022/02/21 05:24:15;;;;;;;8.00;2.10;;;11.10;1.00;;;;;;5091922;28;20210;-74
2022/02/21 05:26:42;;;;;;;11.50;2.73;;;11.10;1.00;;;;;;5092286;28;20202;-76
2022/02/21 05:29:09;;;;;;;9.30;2.07;;;11.10;1.00;;;;;;5092107;28;20198;-72
2022/02/21 05:31:38;;;;;;;6.90;2.40;;;11.10;1.00;;;;;;5092260;28;20258;-73
2022/02/21 05:34:05;;;;;;;6.77;2.80;;;11.00;1.00;;;;;;5091595;28;20233;-73
2022/02/21 05:36:31;;;;;;;7.23;3.27;;;10.90;1.00;;;;;;5092143;28;20205;-74
2022/02/21 05:38:59;;;;;;;12.33;2.90;;;10.90;1.00;;;;;;5091319;28;20254;-74
2022/02/21 05:41:26;;;;;;;14.33;2.30;;;10.90;1.00;;;;;;5092264;28;20263;-76
2022/02/21 05:43:52;;;;;;;8.83;2.27;;;10.90;1.00;;;;;;5091831;28;20726;-73
2022/02/21 05:46:20;;;;;;;11.37;2.43;;;11.00;1.00;;;;;;5092178;28;20734;-75
2022/02/21 05:48:48;;;;;;;9.70;2.90;;;11.00;1.00;;;;;;5090916;28;20205;-76
2022/02/21 05:51:15;;;;;;;9.87;2.20;;;10.90;1.00;;;;;;5090380;28;20213;-74
2022/02/21 05:53:46;;;;;;;6.80;2.37;;;10.80;1.00;;;;;;5090967;28;20669;-75
2022/02/21 05:56:13;;;;;;;13.07;2.67;;;10.70;1.00;;;;;;5090387;28;20201;-74
2022/02/21 05:58:40;;;;;;;13.53;2.73;;;10.80;1.00;;;;;;5091220;28;20260;-74
2022/02/21 06:01:07;;;;;;;8.93;3.10;;;10.70;1.00;;;;;;5090733;28;20206;-75
2022/02/21 06:03:34;;;;;;;8.70;2.43;;;10.70;1.00;;;;;;5090972;28;20683;-75
2022/02/21 06:06:03;;;;;;;6.30;2.63;;;10.70;1.00;;;;;;5090823;28;20209;-75
2022/02/21 06:08:30;;;;;;;7.90;3.53;;;10.70;1.00;;;;;;5091603;28;20197;-75
2022/02/21 06:10:58;;;;;;;4.10;2.50;;;10.70;1.00;;;;;;5091011;28;20202;-75
2022/02/21 06:13:25;;;;;;;9.37;2.90;;;10.80;1.00;;;;;;5091227;28;20237;-74
2022/02/21 06:15:52;;;;;;;9.33;2.50;;;10.80;1.00;;;;;;5091249;28;20205;-73
2022/02/21 06:18:19;;;;;;;9.83;2.13;;;10.80;1.00;;;;;;5091386;28;20661;-75
2022/02/21 06:20:46;;;;;;;9.13;2.40;;;10.80;1.00;;;;;;5091097;28;20205;-73
2022/02/21 06:23:15;;;;;;;6.40;2.20;;;10.80;1.00;;;;;;5090878;28;20630;-74
2022/02/21 06:25:43;;;;;;;9.37;3.07;;;10.60;1.00;;;;;;5091100;28;20660;-74
2022/02/21 06:28:10;;;;;;;7.90;2.97;;;10.50;1.00;;;;;;5090598;28;20743;-74
2022/02/21 06:30:37;;;;;;;10.17;2.70;;;10.50;1.00;;;;;;5090813;28;20201;-75
2022/02/21 06:33:05;;;;;;;9.03;2.40;;;10.40;1.00;;;;;;5090703;28;20226;-75
2022/02/21 06:35:32;;;;;;;8.27;2.50;;;10.30;1.00;;;;;;5091324;28;20262;-76
2022/02/21 06:37:59;;;;;;;8.20;2.00;;;10.30;1.00;;;;;;5090753;28;20258;-75
2022/02/21 06:40:28;;;;;;;5.40;2.10;;;10.30;1.00;;;;;;5091010;28;20227;-75
2022/02/21 06:42:55;;;;;;;9.63;2.77;;;10.20;1.00;;;;;;5090880;28;20206;-75
2022/02/21 06:45:23;;;;;;;10.57;3.17;;;10.30;1.00;;;;;;5090490;28;20201;-75
2022/02/21 06:47:50;;;;;;;8.13;2.53;;;10.30;1.00;;;;;;5094346;28;20204;-76
2022/02/21 06:50:17;;;;;;;9.23;2.80;;;10.30;1.00;;;;;;5103704;28;20601;-75
2022/02/21 06:52:45;;;;;;;10.27;3.10;;;10.30;1.00;;;;;;5105459;28;20232;-75
2022/02/21 06:55:13;;;;;;;14.37;2.97;;;10.30;1.00;;;;;;5095044;28;20296;-76
2022/02/21 06:57:42;;;;;;;6.17;2.17;;;10.30;1.00;;;;;;5088799;28;20691;-76
2022/02/21 07:00:10;;;;;;;8.20;2.97;;;10.20;1.00;;;;;;5089135;28;20791;-76
2022/02/21 07:02:37;;;;;;;7.73;2.83;;;10.10;1.00;;;;;;5090211;28;20251;-76
2022/02/21 07:05:05;;;;;;;7.47;2.37;;;10.10;1.00;;;;;;5090215;28;20262;-78
2022/02/21 07:07:32;;;;;;;14.30;2.77;;;10.10;1.00;;;;;;5090711;28;20209;-79
2022/02/21 07:09:59;;;;;;;13.60;2.90;;;10.10;1.00;;;;;;5090208;28;20209;-76
2022/02/21 07:12:26;;;;;;;10.53;2.37;;;10.00;1.00;;;;;;5090896;28;20273;-74
2022/02/21 07:14:54;;;;;;;6.63;2.23;;;10.10;1.00;;;;;;5089471;28;20245;-79
2022/02/21 07:17:21;;;;;;;9.07;2.60;;;10.10;1.00;;;;;;5078629;28;20226;-80
2022/02/21 07:19:49;;;;;;;7.47;2.20;;;10.10;1.00;;;;;;5093772;28;20254;-77
2022/02/21 07:22:16;;;;;;;6.13;2.03;;;10.10;1.00;;;;;;5094514;28;20677;-79
2022/02/21 07:24:43;;;;;;;11.53;4.17;;;10.00;1.00;;;;;;5106324;28;20209;-77
2022/02/21 07:27:10;;;;;;;5.37;2.73;;;9.90;1.00;;;;;;5105059;28;20201;-75
2022/02/21 07:29:37;;;;;;;9.33;3.43;;;9.90;1.00;;;;;;5114210;28;20246;-77
2022/02/21 07:32:07;;;;;;;8.13;3.87;;;9.90;1.00;;;;;;5113416;28;20208;-78
2022/02/21 07:34:34;;;;;;;8.13;3.17;;;10.00;1.00;;;;;;5101613;28;20725;-80
2022/02/21 07:37:01;;;;;;;6.30;2.53;;;9.90;1.00;;;;;;5094059;28;20201;-76
2022/02/21 07:39:30;;;;;;;6.93;1.90;;;9.80;1.00;;;;;;5105816;28;20274;-71
2022/02/21 07:41:58;;;;;;;6.37;1.83;;;9.80;1.00;;;;;;5105628;28;20209;-72
2022/02/21 07:44:25;;;;;;;6.00;1.90;;;9.80;1.00;;;;;;5098670;28;20210;-74
2022/02/21 07:46:52;;;;;;;9.17;2.20;;;9.90;1.00;;;;;;5094685;28;20922;-73
2022/02/21 07:49:21;;;;;;;8.57;2.53;;;10.00;1.00;;;;;;5088178;28;20639;-71
2022/02/21 07:51:48;;;;;;;12.47;2.50;;;10.00;1.00;;;;;;5110532;28;20201;-71
2022/02/21 07:54:17;;;;;;;8.33;2.23;;;10.00;1.00;;;;;;5108035;27;20297;-71
2022/02/21 07:56:44;;;;;;;7.33;2.50;;;10.00;1.00;;;;;;5114196;28;20208;-73
2022/02/21 07:59:11;;;;;;;6.03;2.53;;;10.10;1.00;;;;;;5113602;28;20258;-73
2022/02/21 08:01:38;;;;;;;4.63;2.07;;;10.00;1.00;;;;;;5110136;28;20206;-71
2022/02/21 08:04:05;;;;;;;7.93;2.27;;;10.00;1.00;;;;;;5093333;28;20206;-73
2022/02/21 08:06:34;;;;;;;6.30;2.00;;;10.00;1.00;;;;;;5093791;28;20201;-73
2022/02/21 08:09:00;;;;;;;4.87;2.03;;;10.00;1.00;;;;;;5093218;28;20202;-71
2022/02/21 08:11:27;;;;;;;6.60;2.17;;;10.10;1.00;;;;;;5093797;28;20254;-74
2022/02/21 08:13:55;;;;;;;8.87;4.07;;;10.10;1.00;;;;;;5093089;28;20302;-72
2022/02/21 08:16:22;;;;;;;6.53;2.90;;;10.10;1.00;;;;;;5093860;28;20206;-73
2022/02/21 08:18:49;;;;;;;5.27;2.07;;;10.00;1.00;;;;;;5093845;28;20241;-72
2022/02/21 08:21:16;;;;;;;5.27;1.73;;;10.10;1.00;;;;;;5093101;28;20673;-72
2022/02/21 08:23:44;;;;;;;11.97;3.53;;;10.10;1.00;;;;;;5093297;28;20685;-72
2022/02/21 08:26:11;;;;;;;7.77;1.77;;;10.10;1.00;;;;;;5093026;28;20205;-71
2022/02/21 08:28:38;;;;;;;5.50;1.87;;;10.10;1.00;;;;;;5093131;28;20723;-73
2022/02/21 08:31:05;;;;;;;7.07;2.17;;;10.10;1.00;;;;;;5092962;28;20251;-73
2022/02/21 08:33:33;;;;;;;9.73;2.40;;;10.20;1.00;;;;;;5092858;28;20276;-75
2022/02/21 08:36:00;;;;;;;3.27;1.60;;;10.20;1.00;;;;;;5092529;28;20210;-73
2022/02/21 08:38:27;;;;;;;2.90;1.70;;;10.20;1.00;;;;;;5093078;28;20201;-72
2022/02/21 08:40:55;;;;;;;11.60;2.80;;;10.30;1.00;;;;;;5092737;28;20252;-73
2022/02/21 08:43:27;;;;;;;3.93;1.40;;;10.40;1.00;;;;;;5093074;28;20262;-72
2022/02/21 08:45:55;;;;;;;3.60;1.73;;;10.50;1.00;;;;;;5092546;28;20673;-74
2022/02/21 08:48:23;;;;;;;7.00;2.20;;;10.60;1.00;;;;;;5093094;28;20206;-72
2022/02/21 08:50:50;;;;;;;8.50;2.53;;;10.70;1.00;;;;;;5093168;28;20244;-73
2022/02/21 08:53:17;;;;;;;4.67;1.57;;;10.70;1.00;;;;;;5092650;28;20588;-72
2022/02/21 08:55:44;;;;;;;17.13;2.93;;;10.90;1.00;;;;;;5091085;28;20210;-73
2022/02/21 08:58:14;;;;;;;8.23;2.60;;;11.00;1.00;;;;;;5092468;28;20251;-73
2022/02/21 09:00:41;;;;;;;10.73;3.27;;;11.10;1.00;;;;;;5092515;28;20206;-72
2022/02/21 09:03:08;;;;;;;16.43;3.10;;;11.20;1.00;;;;;;5092257;28;20673;-71
2022/02/21 09:05:36;;;;;;;6.33;2.23;;;11.40;1.00;;;;;;5092636;28;20559;-71
2022/02/21 09:08:03;;;;;;;12.80;3.23;;;11.60;1.00;;;;;;5092349;28;20201;-71
2022/02/21 09:10:30;;;;;;;10.80;3.93;;;11.60;1.00;;;;;;5092316;28;20839;-74
2022/02/21 09:12:57;;;;;;;10.50;3.37;;;11.70;1.00;;;;;;5092133;28;20255;-72
2022/02/21 09:15:26;;;;;;;13.77;3.27;;;11.70;1.00;;;;;;5092487;28;20229;-73
2022/02/21 09:17:54;;;;;;;12.57;3.07;;;12.00;1.00;;;;;;5092246;28;20604;-72
2022/02/21 09:20:21;;;;;;;12.83;3.30;;;12.10;1.00;;;;;;5092681;28;20259;-72
2022/02/21 09:22:48;;;;;;;10.43;4.00;;;12.20;1.00;;;;;;5092705;28;20251;-72
2022/02/21 09:25:15;;;;;;;10.03;3.13;;;12.30;1.00;;;;;;5091796;28;20205;-72
2022/02/21 09:27:42;;;;;;;6.73;3.50;;;12.20;1.00;;;;;;5092267;28;20684;-71
2022/02/21 09:30:11;;;;;;;15.00;3.63;;;12.20;1.00;;;;;;5091649;28;20631;-72
2022/02/21 09:32:39;;;;;;;9.43;2.55;;;12.10;1.00;;;;;;5092040;28;20202;-71
2022/02/21 09:35:07;;;;;;;18.00;3.55;;;12.10;1.00;;;;;;5091648;28;20235;-71
2022/02/21 09:37:36;;;;;;;14.45;5.18;;;12.10;1.00;;;;;;5092164;28;20247;-75
2022/02/21 09:40:04;;;;;;;17.57;5.60;;;12.20;1.00;;;;;;5091462;28;20662;-70
2022/02/21 09:42:32;;;;;;;11.05;3.22;;;12.50;1.00;;;;;;5091998;28;20293;-71
2022/02/21 09:45:00;;;;;;;15.68;5.65;;;12.60;1.00;;;;;;5091007;28;20213;-72
2022/02/21 09:47:29;;;;;;;15.43;4.32;;;13.10;1.00;;;;;;5091985;28;20658;-72
2022/02/21 09:49:58;;;;;;;17.85;5.32;;;13.20;1.00;;;;;;5091522;28;20732;-71
2022/02/21 09:52:27;;;;;;;10.73;3.53;;;13.30;1.00;;;;;;5091854;28;20198;-70
2022/02/21 09:54:54;;;;;;;18.55;3.90;;;13.00;1.00;;;;;;5091101;28;20274;-70
2022/02/21 09:57:23;;;;;;;17.23;4.05;;;12.60;1.00;;;;;;5092124;28;20725;-72
2022/02/21 09:59:50;;;;;;;18.88;6.03;;;12.40;1.00;;;;;;5091977;28;20240;-71
2022/02/21 10:02:23;;;;;;;19.98;6.13;;;12.20;1.00;;;;;;5091613;28;20740;-70
2022/02/21 10:05:11;;;;;;;23.08;5.93;;;11.80;1.00;;;;;;5091718;28;20673;-71
2022/02/21 10:07:39;;;;;;;24.67;7.75;;;11.70;1.00;;;;;;5091476;28;20206;-71
2022/02/21 10:10:07;;;;;;;22.45;5.65;;;11.80;1.00;;;;;;5090837;28;20664;-70
2022/02/21 10:12:44;;;;;;;23.90;6.72;;;11.60;1.00;;;;;;5091456;28;20251;-70
2022/02/21 10:15:16;;;;;;;18.60;5.43;;;11.70;1.00;;;;;;5090979;28;20232;-70
2022/02/21 10:17:44;;;;;;;26.65;6.20;;;12.20;1.00;;;;;;5091382;28;20661;-70
2022/02/21 10:20:13;;;;;;;21.58;6.32;;;12.30;1.00;;;;;;5090816;28;20255;-70
2022/02/21 10:22:40;;;;;;;31.08;8.05;;;12.30;1.00;;;;;;5091315;28;20209;-70
2022/02/21 10:25:16;;;;;;;18.92;5.45;;;12.90;1.00;;;;;;5090701;28;20668;-71
2022/02/21 10:27:43;;;;;;;18.70;5.03;;;15.40;1.00;;;;;;5091254;28;20201;-71
2022/02/21 10:30:16;;;;;;;20.73;7.63;;;15.60;1.00;;;;;;5090780;28;20205;-71
2022/02/21 10:32:47;;;;;;;33.85;7.63;;;14.40;1.00;;;;;;5090989;28;20280;-73
2022/02/21 10:35:21;;;;;;;23.55;6.03;;;14.40;1.00;;;;;;5090581;28;20283;-71
2022/02/21 10:37:50;;;;;;;28.80;10.63;;;14.80;1.00;;;;;;5091149;28;20198;-72
2022/02/21 10:40:22;;;;;;;24.92;6.25;;;16.30;1.00;;;;;;5090875;28;20209;-72
2022/02/21 10:43:03;;;;;;;30.65;6.45;;;14.40;1.00;;;;;;5091330;28;20212;-71
2022/02/21 10:45:31;;;;;;;23.27;4.88;;;14.00;1.00;;;;;;5090979;28;20262;-70
2022/02/21 10:48:04;;;;;;;17.33;5.85;;;13.90;1.00;;;;;;5090529;28;20198;-70
2022/02/21 10:50:35;;;;;;;36.08;7.15;;;13.20;1.00;;;;;;5091184;28;20630;-71
2022/02/21 10:53:08;;;;;;;34.72;9.35;;;13.10;1.00;;;;;;5090407;28;20213;-72
2022/02/21 10:55:36;;;;;;;27.42;5.70;;;13.40;1.00;;;;;;5091847;28;20232;-71
2022/02/21 10:58:17;;;;;;;21.75;7.20;;;13.30;1.00;;;;;;5092867;28;20750;-71
2022/02/21 11:00:45;;;;;;;22.92;8.80;;;13.10;1.00;;;;;;5095062;28;20206;-78
2022/02/21 11:03:12;;;;;;;15.52;5.32;;;13.00;1.00;;;;;;5094773;28;20832;-72
2022/02/21 11:05:41;;;;;;;18.80;6.97;;;13.30;1.00;;;;;;5094997;28;20553;-72
2022/02/21 11:08:11;;;;;;;14.32;4.80;;;13.50;1.00;;;;;;5094322;28;20711;-71
2022/02/21 11:10:38;;;;;;;23.80;7.65;;;13.70;1.00;;;;;;5094872;28;20627;-72
2022/02/21 11:13:05;;;;;;;17.83;5.95;;;13.50;1.00;;;;;;5094334;28;20726;-71
2022/02/21 11:15:32;;;;;;;17.30;5.75;;;13.60;1.00;;;;;;5094787;28;20229;-71
2022/02/21 11:18:01;;;;;;;23.15;5.97;;;13.50;1.00;;;;;;5094293;28;20731;-73
2022/02/21 11:20:29;;;;;;;19.25;5.03;;;13.70;1.00;;;;;;5094717;28;20337;-71
2022/02/21 11:22:57;;;;;;;23.27;5.88;;;13.50;1.00;;;;;;5094189;28;20209;-71
2022/02/21 11:25:37;;;;;;;21.88;8.18;;;13.30;1.00;;;;;;5094568;28;20205;-71
2022/02/21 11:28:12;;;;;;;20.45;5.35;;;13.40;1.00;;;;;;5093988;28;20260;-75
2022/02/21 11:30:42;;;;;;;27.73;6.85;;;13.70;1.00;;;;;;5094386;28;20208;-72
2022/02/21 11:33:12;;;;;;;18.92;5.88;;;14.10;1.00;;;;;;5094038;28;20205;-75
2022/02/21 11:35:59;;;;;;;19.33;4.72;;;14.30;1.00;;;;;;5094387;28;20240;-71
2022/02/21 11:38:29;;;;;;;18.20;5.18;;;14.20;1.00;;;;;;5094225;28;20677;-70
2022/02/21 11:40:58;;;;;;;18.15;5.05;;;14.00;1.00;;;;;;5094052;28;20573;-71
2022/02/21 11:43:30;;;;;;;25.50;5.20;;;14.20;1.00;;;;;;5094389;28;20205;-70
2022/02/21 11:45:58;;;;;;;19.95;5.30;;;14.00;1.00;;;;;;5093828;28;20731;-71
2022/02/21 11:48:25;;;;;;;17.42;5.57;;;13.90;1.00;;;;;;5093858;28;20603;-71
2022/02/21 11:50:59;;;;;;;17.65;6.13;;;13.40;1.00;;;;;;5094032;28;20205;-70
2022/02/21 11:53:29;;;;;;;19.42;4.85;;;13.30;1.00;;;;;;5093844;28;20213;-71
2022/02/21 11:55:57;;;;;;;24.23;7.15;;;13.30;1.00;;;;;;5093352;28;20241;-70
2022/02/21 11:58:36;;;;;;;19.33;6.18;;;13.40;1.00;;;;;;5094033;28;20201;-71
2022/02/21 12:01:11;;;;;;;18.27;5.13;;;13.20;1.00;;;;;;5093677;28;20582;-72
2022/02/21 12:03:38;;;;;;;19.60;4.60;;;13.30;1.00;;;;;;5093906;28;20201;-71
2022/02/21 12:06:29;;;;;;;20.17;4.93;;;13.70;1.00;;;;;;5093446;28;20201;-70
2022/02/21 12:09:03;;;;;;;23.60;7.65;;;14.10;1.00;;;;;;5092929;28;20677;-72
2022/02/21 12:11:30;;;;;;;14.73;6.50;;;14.20;1.00;;;;;;5093667;28;20206;-72
2022/02/21 12:14:23;;;;;;;14.23;4.28;;;13.80;1.00;;;;;;5093479;28;20300;-71
2022/02/21 12:17:07;;;;;;;18.02;5.90;;;13.50;1.00;;;;;;5093849;28;20566;-73
2022/02/21 12:19:39;;;;;;;21.30;4.80;;;13.30;1.00;;;;;;5093421;28;20281;-71
2022/02/21 12:22:16;;;;;;;15.45;4.45;;;13.30;1.00;;;;;;5093071;28;20780;-71
2022/02/21 12:25:13;;;;;;;19.27;5.45;;;13.30;1.00;;;;;;5093462;28;20204;-70
2022/02/21 12:28:14;;;;;;;20.23;5.43;;;13.80;1.00;;;;;;5093628;28;20201;-71
2022/02/21 12:30:45;;;;;;;25.50;5.40;;;14.10;1.00;;;;;;5093265;28;20257;-71
2022/02/21 12:33:13;;;;;;;18.40;6.00;;;13.70;1.00;;;;;;5092882;28;20777;-71
2022/02/21 12:35:49;;;;;;;21.92;6.20;;;13.40;1.00;;;;;;5092954;28;20285;-71
2022/02/21 12:38:17;;;;;;;28.15;5.82;;;13.60;1.00;;;;;;5092543;28;20246;-74
2022/02/21 12:41:02;;;;;;;15.88;4.47;;;13.80;1.00;;;;;;5093155;28;20571;-71
2022/02/21 12:44:00;;;;;;;14.02;3.92;;;13.90;1.00;;;;;;5093299;28;20206;-74
2022/02/21 12:46:29;;;;;;;27.17;5.22;;;14.00;1.00;;;;;;5030748;28;20294;-72
2022/02/21 12:48:57;;;;;;;19.90;5.78;;;13.90;1.00;;;;;;5079417;28;20205;-71
2022/02/21 12:51:26;;;;;;;17.83;5.28;;;14.10;1.00;;;;;;5093094;28;20262;-70
2022/02/21 12:53:58;;;;;;;15.57;5.75;;;14.00;1.00;;;;;;5092804;28;20213;-71
2022/02/21 12:56:28;;;;;;;19.17;5.20;;;13.60;1.00;;;;;;5092773;28;20318;-70
2022/02/21 12:58:55;;;;;;;20.92;5.70;;;13.50;1.00;;;;;;5090579;28;20262;-71
2022/02/21 13:01:23;;;;;;;17.40;5.43;;;13.30;1.00;;;;;;5093159;28;20582;-74
2022/02/21 13:03:55;;;;;;;20.35;4.95;;;13.40;1.00;;;;;;5092897;28;20198;-74